createdAt,value
2023-01-19T00:01:32.318Z,99988.44
2023-01-19T00:06:34.469Z,99976.56
2023-01-19T00:11:36.735Z,99981.22
2023-01-19T00:16:39.407Z,99978.00
2023-01-19T00:21:41.493Z,99998.03
2023-01-19T00:26:43.546Z,99979.47
2023-01-19T00:31:45.655Z,100005.47
2023-01-19T00:36:47.835Z,99989.25
2023-01-19T00:42:08.423Z,100010.56
2023-01-19T00:47:10.619Z,100020.16
2023-01-19T00:52:12.684Z,100020.00
2023-01-19T00:57:16.115Z,100015.47
2023-01-19T01:02:18.600Z,100021.63
2023-01-19T01:07:24.469Z,100020.66
2023-01-19T01:12:26.765Z,100006.66
2023-01-19T01:17:28.899Z,100028.59
2023-01-19T01:22:31.672Z,100033.31
2023-01-19T01:27:33.905Z,100024.03
2023-01-19T01:32:36.162Z,100017.94
2023-01-19T01:37:38.995Z,100039.16
2023-01-19T01:42:41.357Z,100045.50
2023-01-19T01:47:47.436Z,100001.00
2023-01-19T01:53:08.098Z,100025.22
2023-01-19T01:58:11.851Z,100046.50
2023-01-19T02:03:13.969Z,100040.50
2023-01-19T02:09:00.656Z,100036.56
2023-01-19T02:14:05.428Z,100037.41
2023-01-19T02:19:11.349Z,100034.88
2023-01-19T02:24:13.843Z,100015.41
2023-01-19T02:29:20.193Z,100024.75
2023-01-19T02:34:23.274Z,100036.13
2023-01-19T02:39:36.809Z,100027.34
2023-01-19T02:44:41.831Z,100022.97
2023-01-19T02:49:44.005Z,100003.56
2023-01-19T02:55:34.224Z,100016.56
2023-01-19T03:00:56.718Z,100019.59
2023-01-19T03:06:19.038Z,100026.56
2023-01-19T03:11:21.252Z,100014.72
2023-01-19T03:16:30.771Z,100032.38
2023-01-19T03:21:36.246Z,100035.38
2023-01-19T03:26:44.608Z,100026.72
2023-01-19T03:31:50.890Z,100012.34
2023-01-19T03:36:55.393Z,100007.28
2023-01-19T03:42:10.028Z,100015.56
2023-01-19T03:47:14.989Z,100019.47
2023-01-19T03:52:17.206Z,100007.59
2023-01-19T03:57:19.326Z,100001.16
2023-01-19T04:02:21.390Z,100014.63
2023-01-19T04:07:23.493Z,100005.38
2023-01-19T04:12:25.652Z,99971.72
2023-01-19T04:17:27.745Z,99986.84
2023-01-19T04:22:29.973Z,100005.88
2023-01-19T04:27:32.025Z,100025.50
2023-01-19T04:32:34.162Z,100021.78
2023-01-19T04:37:36.245Z,100028.69
2023-01-19T04:42:38.491Z,100037.84
2023-01-19T04:47:40.857Z,100043.41
2023-01-19T04:52:42.997Z,100025.41
2023-01-19T04:57:45.843Z,100006.06
2023-01-19T05:02:48.279Z,100017.63
2023-01-19T05:07:50.409Z,100015.69
2023-01-19T05:12:52.734Z,100044.97
2023-01-19T05:17:54.834Z,100045.75
2023-01-19T05:22:57.124Z,100032.59
2023-01-19T05:27:59.274Z,100059.66
2023-01-19T05:33:01.817Z,100047.28
2023-01-19T05:38:04.865Z,100055.41
2023-01-19T05:43:07.006Z,100027.47
2023-01-19T05:48:09.512Z,100062.13
2023-01-19T05:53:12.335Z,100042.63
2023-01-19T05:58:14.463Z,100074.13
2023-01-19T06:03:16.643Z,100057.00
2023-01-19T06:08:18.954Z,100079.75
2023-01-19T06:13:21.643Z,100047.34
2023-01-19T06:18:23.890Z,100080.94
2023-01-19T06:23:31.392Z,100098.47
2023-01-19T06:28:33.567Z,100105.50
2023-01-19T06:33:35.709Z,100075.19
2023-01-19T06:38:37.867Z,100106.25
2023-01-19T06:43:40.093Z,100100.06
2023-01-19T06:48:42.267Z,100085.41
2023-01-19T06:53:44.471Z,100094.38
2023-01-19T06:58:50.920Z,100100.63
2023-01-19T07:03:53.388Z,100092.59
2023-01-19T07:08:55.827Z,100099.53
2023-01-19T07:13:57.994Z,100095.66
2023-01-19T07:19:00.110Z,100056.22
2023-01-19T07:24:02.268Z,100069.13
2023-01-19T07:29:04.558Z,100080.19
2023-01-19T07:34:07.363Z,100059.13
2023-01-19T07:39:09.551Z,100035.19
2023-01-19T07:44:11.673Z,100046.84
2023-01-19T07:49:13.732Z,100043.19
2023-01-19T07:54:16.049Z,100038.13
2023-01-19T07:59:18.189Z,100038.94
2023-01-19T08:04:20.915Z,100076.53
2023-01-19T08:09:24.708Z,100089.47
2023-01-19T08:14:26.791Z,100071.09
2023-01-19T08:19:30.053Z,100091.16
2023-01-19T08:24:32.320Z,100087.81
2023-01-19T08:29:34.472Z,100062.81
2023-01-19T08:34:36.540Z,100103.38
2023-01-19T08:39:38.699Z,100110.16
2023-01-19T08:44:49.717Z,100086.25
2023-01-19T08:49:59.179Z,100094.03
2023-01-19T08:55:01.928Z,100063.19
2023-01-19T09:00:04.816Z,100086.38
2023-01-19T09:05:07.570Z,100053.72
2023-01-19T09:10:10.836Z,100031.50
2023-01-19T09:15:16.715Z,100069.97
2023-01-19T09:20:18.943Z,100051.63
2023-01-19T09:25:21.011Z,100032.22
2023-01-19T09:30:23.226Z,100042.31
2023-01-19T09:35:25.324Z,100038.72
2023-01-19T09:40:28.527Z,100018.31
2023-01-19T09:45:37.172Z,100031.03
2023-01-19T09:50:46.911Z,99955.47
2023-01-19T09:55:50.340Z,99962.97
2023-01-19T10:01:06.107Z,99973.28
2023-01-19T10:06:12.186Z,99944.22
2023-01-19T10:11:53.162Z,99965.44
2023-01-19T10:17:28.267Z,99945.72
2023-01-19T10:22:30.371Z,99938.06
2023-01-19T10:27:36.761Z,99915.25
2023-01-19T10:32:39.655Z,99927.28
2023-01-19T10:37:42.405Z,99885.97
2023-01-19T10:42:44.732Z,99883.19
2023-01-19T10:47:55.818Z,99856.56
2023-01-19T10:53:01.207Z,99815.63
2023-01-19T10:58:04.173Z,99843.44
2023-01-19T11:03:30.154Z,99836.09
2023-01-19T11:08:32.331Z,99817.63
2023-01-19T11:13:35.469Z,99836.66
2023-01-19T11:18:40.162Z,99817.75
2023-01-19T11:23:47.577Z,99846.19
2023-01-19T11:28:51.707Z,99834.47
2023-01-19T11:33:56.402Z,99809.47
2023-01-19T11:39:00.980Z,99779.50
2023-01-19T11:44:21.626Z,99804.59
2023-01-19T11:49:48.884Z,99808.66
2023-01-19T11:55:29.517Z,99790.41
2023-01-19T12:00:35.852Z,99796.03
2023-01-19T12:05:41.711Z,99756.13
2023-01-19T12:10:47.363Z,99751.06
2023-01-19T12:15:55.350Z,99736.69
2023-01-19T12:20:59.050Z,99729.22
2023-01-19T12:26:19.620Z,99764.75
2023-01-19T12:31:23.601Z,99728.88
2023-01-19T12:36:33.470Z,99756.06
2023-01-19T12:41:38.658Z,99706.47
2023-01-19T12:47:03.649Z,99734.91
2023-01-19T12:52:34.630Z,99709.81
2023-01-19T12:57:50.038Z,99730.22
2023-01-19T13:02:54.641Z,99702.94
2023-01-19T13:08:03.145Z,99735.44
2023-01-19T13:13:24.353Z,99738.91
2023-01-19T13:18:35.684Z,99714.97
2023-01-19T13:23:50.246Z,99719.59
2023-01-19T13:29:26.429Z,99730.00
2023-01-19T13:34:43.086Z,99738.97
2023-01-19T13:39:46.907Z,99743.06
2023-01-19T13:44:52.762Z,99749.88
2023-01-19T13:49:59.239Z,99750.72
2023-01-19T13:55:04.396Z,99748.53
2023-01-19T14:00:12.978Z,99761.06
2023-01-19T14:05:36.132Z,99744.69
2023-01-19T14:10:42.449Z,99766.50
2023-01-19T14:15:46.254Z,99746.78
2023-01-19T14:21:01.935Z,99752.75
2023-01-19T14:26:04.167Z,99748.41
2023-01-19T14:31:28.415Z,99750.78
2023-01-19T14:36:36.608Z,99736.75
2023-01-19T14:41:41.135Z,99750.09
2023-01-19T14:46:48.567Z,99756.97
2023-01-19T14:51:51.423Z,99711.84
2023-01-19T14:56:54.393Z,99741.81
2023-01-19T15:01:56.920Z,99706.66
2023-01-19T15:06:59.077Z,99744.59
2023-01-19T15:12:01.279Z,99718.81
2023-01-19T15:17:03.530Z,99759.53
2023-01-19T15:22:13.680Z,99762.53
2023-01-19T15:27:16.635Z,99711.69
2023-01-19T15:32:18.913Z,99757.81
2023-01-19T15:37:21.269Z,99741.31
2023-01-19T15:42:23.536Z,99719.13
2023-01-19T15:47:25.680Z,99715.84
2023-01-19T15:52:27.915Z,99746.56
2023-01-19T15:57:30.129Z,99737.84
2023-01-19T16:02:34.721Z,99730.97
2023-01-19T16:07:37.159Z,99746.41
2023-01-19T16:12:39.827Z,99745.38
2023-01-19T16:17:42.363Z,99750.78
2023-01-19T16:22:44.665Z,99712.06
2023-01-19T16:27:46.915Z,99721.47
2023-01-19T16:32:49.383Z,99738.06
2023-01-19T16:37:52.078Z,99762.41
2023-01-19T16:42:54.133Z,99749.19
2023-01-19T16:47:56.303Z,99763.44
2023-01-19T16:52:59.236Z,99772.94
2023-01-19T16:58:01.560Z,99774.06
2023-01-19T17:03:03.675Z,99726.25
2023-01-19T17:08:05.924Z,99736.19
2023-01-19T17:13:08.089Z,99743.34
2023-01-19T17:18:10.579Z,99700.38
2023-01-19T17:23:12.792Z,99724.38
2023-01-19T17:28:14.962Z,99727.66
2023-01-19T17:33:17.731Z,99732.16
2023-01-19T17:38:19.923Z,99695.06
2023-01-19T17:43:22.181Z,99716.56
2023-01-19T17:48:24.292Z,99699.28
2023-01-19T17:53:26.492Z,99711.09
2023-01-19T17:58:31.263Z,99706.53
2023-01-19T18:03:33.920Z,99696.41
2023-01-19T18:08:39.371Z,99719.31
2023-01-19T18:13:43.929Z,99721.94
2023-01-19T18:18:46.150Z,99678.56
2023-01-19T18:23:49.681Z,99689.09
2023-01-19T18:28:59.208Z,99699.19
2023-01-19T18:34:01.294Z,99693.88
2023-01-19T18:39:04.604Z,99683.91
2023-01-19T18:44:06.924Z,99672.41
2023-01-19T18:49:09.992Z,99669.63
2023-01-19T18:54:12.261Z,99655.78
2023-01-19T18:59:14.309Z,99671.78
2023-01-19T19:04:16.590Z,99678.19
2023-01-19T19:09:18.958Z,99685.31
2023-01-19T19:14:21.614Z,99673.94
2023-01-19T19:19:23.863Z,99662.97
2023-01-19T19:24:26.103Z,99672.72
2023-01-19T19:29:28.850Z,99638.34
2023-01-19T19:34:31.191Z,99654.94
2023-01-19T19:39:33.301Z,99618.03
2023-01-19T19:44:35.505Z,99640.63
2023-01-19T19:49:37.757Z,99643.50
2023-01-19T19:54:40.743Z,99652.78
2023-01-19T19:59:42.874Z,99630.44
2023-01-19T20:04:45.440Z,99653.41
2023-01-19T20:09:48.069Z,99615.53
2023-01-19T20:14:50.429Z,99612.81
2023-01-19T20:19:52.768Z,99637.25
2023-01-19T20:24:55.117Z,99661.91
2023-01-19T20:29:58.564Z,99649.56
2023-01-19T20:35:00.856Z,99615.69
2023-01-19T20:40:03.187Z,99644.03
2023-01-19T20:45:05.688Z,99690.63
2023-01-19T20:50:08.425Z,99676.13
2023-01-19T20:55:10.858Z,99671.84
2023-01-19T21:00:13.447Z,99675.34
2023-01-19T21:05:15.602Z,99699.00
2023-01-19T21:10:18.162Z,99684.09
2023-01-19T21:15:20.324Z,99690.34
2023-01-19T21:20:22.394Z,99696.44
2023-01-19T21:25:24.502Z,99716.59
2023-01-19T21:30:26.657Z,99751.25
2023-01-19T21:35:29.070Z,99835.69
2023-01-19T21:40:31.540Z,99831.22
2023-01-19T21:45:34.226Z,99809.25
2023-01-19T21:50:36.493Z,99880.59
2023-01-19T21:55:38.879Z,99848.59
2023-01-19T22:00:41.451Z,99878.63
2023-01-19T22:05:43.554Z,99888.28
2023-01-19T22:10:45.688Z,99834.88
2023-01-19T22:15:47.821Z,99842.34
2023-01-19T22:20:49.897Z,99801.16
2023-01-19T22:25:52.014Z,99793.41
2023-01-19T22:30:54.211Z,99778.81
2023-01-19T22:36:28.420Z,99779.50
2023-01-19T22:41:33.187Z,99790.50
2023-01-19T22:46:37.259Z,99779.78
2023-01-19T22:51:39.691Z,99768.44
2023-01-19T22:56:42.161Z,99770.09
2023-01-19T23:01:44.868Z,99763.44
2023-01-19T23:06:50.663Z,99739.09
2023-01-19T23:11:53.329Z,99762.22
2023-01-19T23:16:55.591Z,99762.84
2023-01-19T23:21:57.795Z,99729.00
2023-01-19T23:27:01.866Z,99755.63
2023-01-19T23:32:04.114Z,99738.94
2023-01-19T23:37:06.271Z,99777.22
2023-01-19T23:42:08.535Z,99730.81
2023-01-19T23:47:10.609Z,99720.06
2023-01-19T23:52:12.737Z,99674.69
2023-01-19T23:57:14.791Z,99695.72
